UTTT Airport Information

Runway Information
Runway 08L Length 13123 ft width 197 ft
Elevation 1368 ft Threshold 820 ft Heading 84
Runway 26R Length 13123 ft Width 197 ft
Elevation 1414 ft Threshold 820 ft Heading 264
Runway 08R Length 12812 ft width 148 ft
Elevation 1368 ft Threshold 650 ft Heading 81
Runway 26L Length 12812 ft Width 148 ft
Elevation 1411 ft Threshold 680 ft Heading 261
Airport Frequencies
Type APP Name TASHKENT A Frequency 125.2 MHZ
Type ATIS Name ATIS Frequency 126.8 MHZ
Type CLD Name TASHKENT D Frequency 129.4 MHZ
Type GCA Name TASHKENT K Frequency 119.4 MHZ
Type GND Name TASHKENT G Frequency 121.7 MHZ
Type TWR Name TASHKENT T Frequency 120.4 MHZ
Airport Navaids
Type NDB Name Tashkent Frequency 285 KHZ
Type NDB Name Tashkent Frequency 285 KHZ
Type VOR-DME Name Tashkent Frequency 113200 KHZ
Type NDB Name Tashkent Frequency 340 KHZ
Airport Weather Information & NOTAM
ADDS - METARS form results

(1915 UTC 18 July 2019)
Data provider http://aviationweather.gov/metar/data/
 
METAR text: UTTT 181900Z 08008KT CAVOK 27/14 Q1003 R08R/CLRD70 NOSIG
Conditions at: UTTT (TASKENT/YUZNI , UZ) observed 1900 UTC 18 July 2019
Temperature: 27.0°C (81°F)
Dewpoint: 14.0°C (57°F) [RH = 45%]
Pressure (altimeter): 29.62 inches Hg (1003.0 mb)
Winds: from the E (80 degrees) at 9 MPH (8 knots; 4.1 m/s)
Visibility: 6 or more miles (10+ km)
Ceiling: ceiling and visibility are OK
Clouds: unknown
Weather: no significant weather observed at this time

METAR text: UTTT 181830Z 10006KT CAVOK 29/15 Q1003 R08R/CLRD70 NOSIG
Conditions at: UTTT (TASKENT/YUZNI , UZ) observed 1830 UTC 18 July 2019
Temperature: 29.0°C (84°F)
Dewpoint: 15.0°C (59°F) [RH = 43%]
Pressure (altimeter): 29.62 inches Hg (1003.0 mb)
Winds: from the E (100 degrees) at 7 MPH (6 knots; 3.1 m/s)
Visibility: 6 or more miles (10+ km)
Ceiling: ceiling and visibility are OK
Clouds: unknown
Weather: no significant weather observed at this time

Forecast for: UTTT (TASKENT/YUZNI , UZ)
Text: TAF UTTT 181700Z 1818/1918 08012KT 7000 NSC TX42/1910Z
Forecast period: 1800 UTC 18 July 2019 to 1800 UTC 19 July 2019
Forecast type: FROM: standard forecast or significant change
Winds: from the E (80 degrees) at 14 MPH (12 knots; 6.2 m/s)
Visibility: 4 miles (7 km)
Ceiling: unknown
Clouds: missing
Weather: no significant weather forecast for this period
Text: TEMPO 1906/1915 23012KT
Forecast period: 0600 to 1500 UTC 19 July 2019
Forecast type: TEMPORARY: The following changes expected for less than half the time period
Winds: from the SW (230 degrees) at 14 MPH (12 knots; 6.2 m/s)
Visibility: missing
Ceiling: unknown
Clouds: missing
Weather: no significant weather forecast for this period